sensor_id;sensor_type;location;lat;lon;timestamp;P1;durP1;ratioP1;P2;durP2;ratioP2
46365;SDS011;32073;49.166;8.076;2023-04-15T00:03:10;2.30;;;0.80;;
46365;SDS011;32073;49.166;8.076;2023-04-15T00:07:11;1.67;;;0.70;;
46365;SDS011;32073;49.166;8.076;2023-04-15T00:11:12;2.58;;;0.95;;
46365;SDS011;32073;49.166;8.076;2023-04-15T00:15:14;3.20;;;1.02;;
46365;SDS011;32073;49.166;8.076;2023-04-15T00:19:15;3.47;;;0.90;;
46365;SDS011;32073;49.166;8.076;2023-04-15T00:23:15;1.75;;;0.63;;
46365;SDS011;32073;49.166;8.076;2023-04-15T00:27:16;2.95;;;0.80;;
46365;SDS011;32073;49.166;8.076;2023-04-15T00:31:17;2.25;;;0.88;;
46365;SDS011;32073;49.166;8.076;2023-04-15T00:35:18;2.70;;;1.08;;
46365;SDS011;32073;49.166;8.076;2023-04-15T00:39:18;3.38;;;1.10;;
46365;SDS011;32073;49.166;8.076;2023-04-15T00:43:19;3.40;;;1.20;;
46365;SDS011;32073;49.166;8.076;2023-04-15T00:47:20;1.33;;;0.90;;
46365;SDS011;32073;49.166;8.076;2023-04-15T00:51:21;2.17;;;0.90;;
46365;SDS011;32073;49.166;8.076;2023-04-15T00:55:23;4.05;;;1.17;;
46365;SDS011;32073;49.166;8.076;2023-04-15T00:59:24;2.03;;;0.80;;
46365;SDS011;32073;49.166;8.076;2023-04-15T01:03:25;3.58;;;0.90;;
46365;SDS011;32073;49.166;8.076;2023-04-15T01:07:25;2.75;;;0.88;;
46365;SDS011;32073;49.166;8.076;2023-04-15T01:11:26;1.88;;;0.75;;
46365;SDS011;32073;49.166;8.076;2023-04-15T01:15:28;3.13;;;0.90;;
46365;SDS011;32073;49.166;8.076;2023-04-15T01:19:30;2.25;;;0.82;;
46365;SDS011;32073;49.166;8.076;2023-04-15T01:23:30;1.48;;;0.63;;
46365;SDS011;32073;49.166;8.076;2023-04-15T01:27:32;2.88;;;0.88;;
46365;SDS011;32073;49.166;8.076;2023-04-15T01:31:35;1.83;;;1.08;;
46365;SDS011;32073;49.166;8.076;2023-04-15T01:35:36;1.42;;;0.73;;
46365;SDS011;32073;49.166;8.076;2023-04-15T01:39:37;4.95;;;0.80;;
46365;SDS011;32073;49.166;8.076;2023-04-15T01:43:38;3.00;;;0.70;;
46365;SDS011;32073;49.166;8.076;2023-04-15T01:47:39;3.28;;;0.90;;
46365;SDS011;32073;49.166;8.076;2023-04-15T01:51:39;1.30;;;0.88;;
46365;SDS011;32073;49.166;8.076;2023-04-15T01:55:40;3.35;;;0.70;;
46365;SDS011;32073;49.166;8.076;2023-04-15T01:59:41;1.05;;;0.60;;
46365;SDS011;32073;49.166;8.076;2023-04-15T02:03:42;1.27;;;0.70;;
46365;SDS011;32073;49.166;8.076;2023-04-15T02:07:44;1.63;;;0.60;;
46365;SDS011;32073;49.166;8.076;2023-04-15T02:11:45;4.55;;;0.98;;
46365;SDS011;32073;49.166;8.076;2023-04-15T02:15:46;2.45;;;0.75;;
46365;SDS011;32073;49.166;8.076;2023-04-15T02:19:47;2.78;;;0.90;;
46365;SDS011;32073;49.166;8.076;2023-04-15T02:23:48;3.17;;;0.73;;
46365;SDS011;32073;49.166;8.076;2023-04-15T02:27:50;3.30;;;0.75;;
46365;SDS011;32073;49.166;8.076;2023-04-15T02:31:50;1.65;;;0.82;;
46365;SDS011;32073;49.166;8.076;2023-04-15T02:35:51;2.45;;;0.98;;
46365;SDS011;32073;49.166;8.076;2023-04-15T02:39:52;2.20;;;0.80;;
46365;SDS011;32073;49.166;8.076;2023-04-15T02:43:53;2.38;;;0.85;;
46365;SDS011;32073;49.166;8.076;2023-04-15T02:47:53;2.83;;;0.90;;
46365;SDS011;32073;49.166;8.076;2023-04-15T02:51:54;3.58;;;1.10;;
46365;SDS011;32073;49.166;8.076;2023-04-15T02:55:57;3.92;;;0.90;;
46365;SDS011;32073;49.166;8.076;2023-04-15T02:59:58;2.15;;;0.80;;
46365;SDS011;32073;49.166;8.076;2023-04-15T03:03:59;1.35;;;0.90;;
46365;SDS011;32073;49.166;8.076;2023-04-15T03:08:00;2.60;;;0.90;;
46365;SDS011;32073;49.166;8.076;2023-04-15T03:12:02;2.55;;;0.95;;
46365;SDS011;32073;49.166;8.076;2023-04-15T03:16:03;2.38;;;1.10;;
46365;SDS011;32073;49.166;8.076;2023-04-15T03:20:04;2.53;;;1.00;;
46365;SDS011;32073;49.166;8.076;2023-04-15T03:24:06;7.20;;;1.20;;
46365;SDS011;32073;49.166;8.076;2023-04-15T03:28:07;1.27;;;0.70;;
46365;SDS011;32073;49.166;8.076;2023-04-15T03:32:07;2.03;;;0.90;;
46365;SDS011;32073;49.166;8.076;2023-04-15T03:36:08;4.53;;;0.82;;
46365;SDS011;32073;49.166;8.076;2023-04-15T03:40:09;2.85;;;1.15;;
46365;SDS011;32073;49.166;8.076;2023-04-15T03:44:10;2.85;;;1.10;;
46365;SDS011;32073;49.166;8.076;2023-04-15T03:48:11;2.45;;;1.10;;
46365;SDS011;32073;49.166;8.076;2023-04-15T03:52:11;1.20;;;0.63;;
46365;SDS011;32073;49.166;8.076;2023-04-15T03:56:12;1.98;;;0.85;;
46365;SDS011;32073;49.166;8.076;2023-04-15T04:00:12;4.15;;;0.75;;
46365;SDS011;32073;49.166;8.076;2023-04-15T04:04:14;2.72;;;0.68;;
46365;SDS011;32073;49.166;8.076;2023-04-15T04:08:15;3.75;;;1.00;;
46365;SDS011;32073;49.166;8.076;2023-04-15T04:12:16;2.13;;;0.73;;
46365;SDS011;32073;49.166;8.076;2023-04-15T04:16:17;2.05;;;0.82;;
46365;SDS011;32073;49.166;8.076;2023-04-15T04:20:17;2.00;;;0.75;;
46365;SDS011;32073;49.166;8.076;2023-04-15T04:24:18;2.92;;;1.33;;
46365;SDS011;32073;49.166;8.076;2023-04-15T04:28:19;2.50;;;1.10;;
46365;SDS011;32073;49.166;8.076;2023-04-15T04:32:20;2.42;;;1.00;;
46365;SDS011;32073;49.166;8.076;2023-04-15T04:36:21;3.90;;;0.98;;
46365;SDS011;32073;49.166;8.076;2023-04-15T04:40:21;2.63;;;0.82;;
46365;SDS011;32073;49.166;8.076;2023-04-15T04:44:22;4.90;;;1.60;;
46365;SDS011;32073;49.166;8.076;2023-04-15T04:48:22;2.88;;;1.00;;
46365;SDS011;32073;49.166;8.076;2023-04-15T04:52:23;2.08;;;1.00;;
46365;SDS011;32073;49.166;8.076;2023-04-15T04:56:24;3.05;;;1.40;;
46365;SDS011;32073;49.166;8.076;2023-04-15T05:00:24;3.80;;;1.10;;
46365;SDS011;32073;49.166;8.076;2023-04-15T05:04:25;2.53;;;0.80;;
46365;SDS011;32073;49.166;8.076;2023-04-15T05:08:25;3.92;;;1.10;;
46365;SDS011;32073;49.166;8.076;2023-04-15T05:12:26;3.88;;;1.85;;
46365;SDS011;32073;49.166;8.076;2023-04-15T05:16:27;5.00;;;1.77;;
46365;SDS011;32073;49.166;8.076;2023-04-15T05:20:27;3.80;;;1.40;;
46365;SDS011;32073;49.166;8.076;2023-04-15T05:24:28;2.67;;;1.40;;
46365;SDS011;32073;49.166;8.076;2023-04-15T05:28:29;2.90;;;1.40;;
46365;SDS011;32073;49.166;8.076;2023-04-15T05:32:29;3.78;;;1.67;;
46365;SDS011;32073;49.166;8.076;2023-04-15T05:36:30;3.38;;;0.90;;
46365;SDS011;32073;49.166;8.076;2023-04-15T05:40:31;3.70;;;1.40;;
46365;SDS011;32073;49.166;8.076;2023-04-15T05:44:32;3.08;;;1.42;;
46365;SDS011;32073;49.166;8.076;2023-04-15T05:48:32;3.95;;;1.33;;
46365;SDS011;32073;49.166;8.076;2023-04-15T05:52:33;3.78;;;1.40;;
46365;SDS011;32073;49.166;8.076;2023-04-15T05:56:33;4.55;;;1.83;;
46365;SDS011;32073;49.166;8.076;2023-04-15T06:00:34;4.68;;;1.98;;
46365;SDS011;32073;49.166;8.076;2023-04-15T06:04:35;4.30;;;1.83;;
46365;SDS011;32073;49.166;8.076;2023-04-15T06:08:36;4.43;;;1.48;;
46365;SDS011;32073;49.166;8.076;2023-04-15T06:12:37;4.47;;;2.20;;
46365;SDS011;32073;49.166;8.076;2023-04-15T06:16:37;4.68;;;1.85;;
46365;SDS011;32073;49.166;8.076;2023-04-15T06:20:38;4.35;;;2.47;;
46365;SDS011;32073;49.166;8.076;2023-04-15T06:24:39;5.03;;;1.70;;
46365;SDS011;32073;49.166;8.076;2023-04-15T06:28:40;6.70;;;3.42;;
46365;SDS011;32073;49.166;8.076;2023-04-15T06:32:40;8.00;;;2.95;;
46365;SDS011;32073;49.166;8.076;2023-04-15T06:36:41;10.40;;;5.18;;
46365;SDS011;32073;49.166;8.076;2023-04-15T06:40:42;9.20;;;3.65;;
46365;SDS011;32073;49.166;8.076;2023-04-15T06:44:42;7.55;;;3.60;;
46365;SDS011;32073;49.166;8.076;2023-04-15T06:48:43;6.68;;;2.30;;
46365;SDS011;32073;49.166;8.076;2023-04-15T06:52:44;6.38;;;2.42;;
46365;SDS011;32073;49.166;8.076;2023-04-15T06:56:45;12.63;;;6.57;;
46365;SDS011;32073;49.166;8.076;2023-04-15T07:00:46;12.73;;;4.60;;
46365;SDS011;32073;49.166;8.076;2023-04-15T07:04:47;9.88;;;3.25;;
46365;SDS011;32073;49.166;8.076;2023-04-15T07:08:48;4.93;;;2.85;;
46365;SDS011;32073;49.166;8.076;2023-04-15T07:12:48;5.68;;;2.80;;
46365;SDS011;32073;49.166;8.076;2023-04-15T07:16:49;6.65;;;2.95;;
46365;SDS011;32073;49.166;8.076;2023-04-15T07:20:50;6.03;;;2.53;;
46365;SDS011;32073;49.166;8.076;2023-04-15T07:24:51;4.50;;;2.08;;
46365;SDS011;32073;49.166;8.076;2023-04-15T07:28:52;7.07;;;2.13;;
46365;SDS011;32073;49.166;8.076;2023-04-15T07:32:52;5.78;;;2.10;;
46365;SDS011;32073;49.166;8.076;2023-04-15T07:36:53;8.13;;;2.47;;
46365;SDS011;32073;49.166;8.076;2023-04-15T07:40:54;5.95;;;1.90;;
46365;SDS011;32073;49.166;8.076;2023-04-15T07:44:55;5.05;;;2.30;;
46365;SDS011;32073;49.166;8.076;2023-04-15T07:48:56;5.30;;;2.53;;
46365;SDS011;32073;49.166;8.076;2023-04-15T07:52:56;4.88;;;2.40;;
46365;SDS011;32073;49.166;8.076;2023-04-15T07:56:57;4.00;;;2.60;;
46365;SDS011;32073;49.166;8.076;2023-04-15T08:00:58;4.90;;;2.58;;
46365;SDS011;32073;49.166;8.076;2023-04-15T08:04:58;5.13;;;2.50;;
46365;SDS011;32073;49.166;8.076;2023-04-15T08:09:01;6.43;;;2.28;;
46365;SDS011;32073;49.166;8.076;2023-04-15T08:13:02;3.97;;;2.30;;
46365;SDS011;32073;49.166;8.076;2023-04-15T08:17:03;7.05;;;3.60;;
46365;SDS011;32073;49.166;8.076;2023-04-15T08:21:04;8.88;;;2.58;;
46365;SDS011;32073;49.166;8.076;2023-04-15T08:25:05;4.82;;;2.83;;
46365;SDS011;32073;49.166;8.076;2023-04-15T08:29:06;4.18;;;2.25;;
46365;SDS011;32073;49.166;8.076;2023-04-15T08:33:07;4.32;;;2.85;;
46365;SDS011;32073;49.166;8.076;2023-04-15T08:37:07;4.97;;;2.53;;
46365;SDS011;32073;49.166;8.076;2023-04-15T08:41:20;5.90;;;2.60;;
46365;SDS011;32073;49.166;8.076;2023-04-15T08:45:22;5.65;;;2.22;;
46365;SDS011;32073;49.166;8.076;2023-04-15T08:49:23;5.00;;;1.85;;
46365;SDS011;32073;49.166;8.076;2023-04-15T08:53:28;4.10;;;1.95;;
46365;SDS011;32073;49.166;8.076;2023-04-15T08:57:29;5.53;;;1.80;;
46365;SDS011;32073;49.166;8.076;2023-04-15T09:01:31;3.58;;;2.10;;
46365;SDS011;32073;49.166;8.076;2023-04-15T09:05:32;5.05;;;2.28;;
46365;SDS011;32073;49.166;8.076;2023-04-15T09:09:34;5.20;;;2.13;;
46365;SDS011;32073;49.166;8.076;2023-04-15T09:13:36;4.88;;;2.13;;
46365;SDS011;32073;49.166;8.076;2023-04-15T09:17:46;4.30;;;1.90;;
46365;SDS011;32073;49.166;8.076;2023-04-15T09:21:47;3.30;;;1.80;;
46365;SDS011;32073;49.166;8.076;2023-04-15T09:25:50;3.03;;;1.85;;
46365;SDS011;32073;49.166;8.076;2023-04-15T09:29:50;4.20;;;2.20;;
46365;SDS011;32073;49.166;8.076;2023-04-15T09:33:54;4.63;;;2.15;;
46365;SDS011;32073;49.166;8.076;2023-04-15T09:38:04;5.93;;;2.40;;
46365;SDS011;32073;49.166;8.076;2023-04-15T09:42:07;4.50;;;1.85;;
46365;SDS011;32073;49.166;8.076;2023-04-15T09:46:08;5.45;;;2.22;;
46365;SDS011;32073;49.166;8.076;2023-04-15T09:50:09;4.32;;;1.98;;
46365;SDS011;32073;49.166;8.076;2023-04-15T09:54:10;5.00;;;2.20;;
46365;SDS011;32073;49.166;8.076;2023-04-15T09:58:21;6.38;;;2.08;;
46365;SDS011;32073;49.166;8.076;2023-04-15T10:02:26;6.43;;;2.40;;
46365;SDS011;32073;49.166;8.076;2023-04-15T10:06:29;6.75;;;2.75;;
46365;SDS011;32073;49.166;8.076;2023-04-15T10:10:30;7.80;;;3.30;;
46365;SDS011;32073;49.166;8.076;2023-04-15T10:14:33;5.03;;;2.60;;
46365;SDS011;32073;49.166;8.076;2023-04-15T10:18:39;7.13;;;2.30;;
46365;SDS011;32073;49.166;8.076;2023-04-15T10:22:43;6.72;;;3.17;;
46365;SDS011;32073;49.166;8.076;2023-04-15T10:26:45;5.10;;;2.80;;
46365;SDS011;32073;49.166;8.076;2023-04-15T10:30:46;5.28;;;2.75;;
46365;SDS011;32073;49.166;8.076;2023-04-15T10:34:48;5.22;;;2.78;;
46365;SDS011;32073;49.166;8.076;2023-04-15T10:38:50;4.68;;;2.70;;
46365;SDS011;32073;49.166;8.076;2023-04-15T10:42:51;4.65;;;2.42;;
46365;SDS011;32073;49.166;8.076;2023-04-15T10:46:56;5.22;;;2.15;;
46365;SDS011;32073;49.166;8.076;2023-04-15T10:51:01;4.65;;;2.65;;
46365;SDS011;32073;49.166;8.076;2023-04-15T10:59:15;7.45;;;2.53;;
46365;SDS011;32073;49.166;8.076;2023-04-15T11:03:16;6.20;;;2.17;;
46365;SDS011;32073;49.166;8.076;2023-04-15T11:07:39;4.32;;;1.80;;
46365;SDS011;32073;49.166;8.076;2023-04-15T11:16:07;2.08;;;1.17;;
46365;SDS011;32073;49.166;8.076;2023-04-15T11:20:09;3.45;;;1.40;;
46365;SDS011;32073;49.166;8.076;2023-04-15T11:24:24;4.90;;;1.50;;
46365;SDS011;32073;49.166;8.076;2023-04-15T11:28:29;4.07;;;1.83;;
46365;SDS011;32073;49.166;8.076;2023-04-15T11:32:31;2.83;;;1.50;;
46365;SDS011;32073;49.166;8.076;2023-04-15T11:36:31;4.47;;;1.50;;
46365;SDS011;32073;49.166;8.076;2023-04-15T11:40:32;3.10;;;1.38;;
46365;SDS011;32073;49.166;8.076;2023-04-15T11:44:34;2.63;;;1.27;;
46365;SDS011;32073;49.166;8.076;2023-04-15T11:48:35;4.60;;;1.88;;
46365;SDS011;32073;49.166;8.076;2023-04-15T11:52:36;4.15;;;1.60;;
46365;SDS011;32073;49.166;8.076;2023-04-15T11:56:37;5.07;;;1.67;;
46365;SDS011;32073;49.166;8.076;2023-04-15T12:00:38;4.18;;;1.80;;
46365;SDS011;32073;49.166;8.076;2023-04-15T12:04:40;4.50;;;1.70;;
46365;SDS011;32073;49.166;8.076;2023-04-15T12:13:05;1.73;;;1.25;;
46365;SDS011;32073;49.166;8.076;2023-04-15T12:17:09;3.25;;;1.52;;
46365;SDS011;32073;49.166;8.076;2023-04-15T12:21:10;4.05;;;2.00;;
46365;SDS011;32073;49.166;8.076;2023-04-15T12:25:11;3.30;;;1.52;;
46365;SDS011;32073;49.166;8.076;2023-04-15T12:29:12;4.43;;;1.65;;
46365;SDS011;32073;49.166;8.076;2023-04-15T12:33:15;4.75;;;1.40;;
46365;SDS011;32073;49.166;8.076;2023-04-15T12:37:16;4.70;;;1.65;;
46365;SDS011;32073;49.166;8.076;2023-04-15T12:41:17;4.47;;;2.00;;
46365;SDS011;32073;49.166;8.076;2023-04-15T12:45:19;2.30;;;1.60;;
46365;SDS011;32073;49.166;8.076;2023-04-15T12:49:20;4.53;;;1.58;;
46365;SDS011;32073;49.166;8.076;2023-04-15T12:53:22;2.25;;;1.10;;
46365;SDS011;32073;49.166;8.076;2023-04-15T12:57:23;3.63;;;1.58;;
46365;SDS011;32073;49.166;8.076;2023-04-15T13:01:23;3.20;;;1.60;;
46365;SDS011;32073;49.166;8.076;2023-04-15T13:05:24;3.47;;;1.30;;
46365;SDS011;32073;49.166;8.076;2023-04-15T13:09:25;2.58;;;1.30;;
46365;SDS011;32073;49.166;8.076;2023-04-15T13:13:26;3.92;;;1.05;;
46365;SDS011;32073;49.166;8.076;2023-04-15T13:17:26;4.47;;;1.13;;
46365;SDS011;32073;49.166;8.076;2023-04-15T13:21:27;3.60;;;1.70;;
46365;SDS011;32073;49.166;8.076;2023-04-15T13:25:28;2.78;;;2.00;;
46365;SDS011;32073;49.166;8.076;2023-04-15T13:29:29;4.32;;;2.10;;
46365;SDS011;32073;49.166;8.076;2023-04-15T13:33:30;5.32;;;2.05;;
46365;SDS011;32073;49.166;8.076;2023-04-15T13:37:31;4.20;;;2.03;;
46365;SDS011;32073;49.166;8.076;2023-04-15T13:41:31;3.35;;;2.33;;
46365;SDS011;32073;49.166;8.076;2023-04-15T13:45:32;4.63;;;2.20;;
46365;SDS011;32073;49.166;8.076;2023-04-15T13:49:32;4.03;;;1.58;;
46365;SDS011;32073;49.166;8.076;2023-04-15T13:53:33;2.80;;;1.63;;
46365;SDS011;32073;49.166;8.076;2023-04-15T13:57:35;3.20;;;1.80;;
46365;SDS011;32073;49.166;8.076;2023-04-15T14:01:35;2.92;;;1.77;;
46365;SDS011;32073;49.166;8.076;2023-04-15T14:05:36;3.97;;;1.75;;
46365;SDS011;32073;49.166;8.076;2023-04-15T14:09:37;3.20;;;2.03;;
46365;SDS011;32073;49.166;8.076;2023-04-15T14:13:38;2.28;;;1.48;;
46365;SDS011;32073;49.166;8.076;2023-04-15T14:17:38;2.65;;;1.50;;
46365;SDS011;32073;49.166;8.076;2023-04-15T14:21:41;3.92;;;1.83;;
46365;SDS011;32073;49.166;8.076;2023-04-15T14:25:41;3.45;;;1.10;;
46365;SDS011;32073;49.166;8.076;2023-04-15T14:29:42;2.58;;;0.80;;
46365;SDS011;32073;49.166;8.076;2023-04-15T14:33:43;1.83;;;0.90;;
46365;SDS011;32073;49.166;8.076;2023-04-15T14:37:43;3.42;;;1.13;;
46365;SDS011;32073;49.166;8.076;2023-04-15T14:41:44;2.45;;;0.80;;
46365;SDS011;32073;49.166;8.076;2023-04-15T14:45:46;3.45;;;1.33;;
46365;SDS011;32073;49.166;8.076;2023-04-15T14:49:46;3.80;;;1.58;;
46365;SDS011;32073;49.166;8.076;2023-04-15T14:53:47;6.38;;;2.35;;
46365;SDS011;32073;49.166;8.076;2023-04-15T14:57:48;3.92;;;1.23;;
46365;SDS011;32073;49.166;8.076;2023-04-15T15:01:48;2.47;;;1.00;;
46365;SDS011;32073;49.166;8.076;2023-04-15T15:05:49;0.77;;;0.70;;
46365;SDS011;32073;49.166;8.076;2023-04-15T15:09:50;0.65;;;0.60;;
46365;SDS011;32073;49.166;8.076;2023-04-15T15:13:50;3.40;;;1.13;;
46365;SDS011;32073;49.166;8.076;2023-04-15T15:17:52;1.85;;;1.15;;
46365;SDS011;32073;49.166;8.076;2023-04-15T15:21:53;4.10;;;1.77;;
46365;SDS011;32073;49.166;8.076;2023-04-15T15:25:53;2.65;;;1.33;;
46365;SDS011;32073;49.166;8.076;2023-04-15T15:29:55;2.85;;;1.73;;
46365;SDS011;32073;49.166;8.076;2023-04-15T15:33:55;2.22;;;1.20;;
46365;SDS011;32073;49.166;8.076;2023-04-15T15:37:58;2.75;;;1.23;;
46365;SDS011;32073;49.166;8.076;2023-04-15T15:41:59;2.28;;;0.93;;
46365;SDS011;32073;49.166;8.076;2023-04-15T15:46:00;3.47;;;1.13;;
46365;SDS011;32073;49.166;8.076;2023-04-15T15:50:01;2.08;;;1.10;;
46365;SDS011;32073;49.166;8.076;2023-04-15T15:54:02;0.60;;;0.55;;
46365;SDS011;32073;49.166;8.076;2023-04-15T15:58:02;4.03;;;0.85;;
46365;SDS011;32073;49.166;8.076;2023-04-15T16:02:03;1.88;;;0.93;;
46365;SDS011;32073;49.166;8.076;2023-04-15T16:06:04;0.73;;;0.63;;
46365;SDS011;32073;49.166;8.076;2023-04-15T16:10:05;2.40;;;1.55;;
46365;SDS011;32073;49.166;8.076;2023-04-15T16:14:06;2.15;;;1.40;;
46365;SDS011;32073;49.166;8.076;2023-04-15T16:18:07;1.13;;;1.00;;
46365;SDS011;32073;49.166;8.076;2023-04-15T16:22:08;5.13;;;2.60;;
46365;SDS011;32073;49.166;8.076;2023-04-15T16:26:08;3.90;;;2.50;;
46365;SDS011;32073;49.166;8.076;2023-04-15T16:30:09;7.85;;;3.63;;
46365;SDS011;32073;49.166;8.076;2023-04-15T16:34:11;4.25;;;2.53;;
46365;SDS011;32073;49.166;8.076;2023-04-15T16:38:11;2.55;;;1.70;;
46365;SDS011;32073;49.166;8.076;2023-04-15T16:42:12;5.60;;;1.30;;
46365;SDS011;32073;49.166;8.076;2023-04-15T16:46:13;1.25;;;0.60;;
46365;SDS011;32073;49.166;8.076;2023-04-15T16:50:13;1.08;;;0.70;;
46365;SDS011;32073;49.166;8.076;2023-04-15T16:54:14;9.88;;;4.88;;
46365;SDS011;32073;49.166;8.076;2023-04-15T16:58:15;2.60;;;1.90;;
46365;SDS011;32073;49.166;8.076;2023-04-15T17:02:15;19.83;;;8.70;;
46365;SDS011;32073;49.166;8.076;2023-04-15T17:06:16;6.72;;;3.30;;
46365;SDS011;32073;49.166;8.076;2023-04-15T17:10:17;2.00;;;1.60;;
46365;SDS011;32073;49.166;8.076;2023-04-15T17:14:18;2.70;;;1.50;;
46365;SDS011;32073;49.166;8.076;2023-04-15T17:18:18;1.80;;;1.48;;
46365;SDS011;32073;49.166;8.076;2023-04-15T17:22:19;2.15;;;1.80;;
46365;SDS011;32073;49.166;8.076;2023-04-15T17:26:19;2.30;;;0.98;;
46365;SDS011;32073;49.166;8.076;2023-04-15T17:30:21;1.42;;;0.80;;
46365;SDS011;32073;49.166;8.076;2023-04-15T17:34:22;0.65;;;0.65;;
46365;SDS011;32073;49.166;8.076;2023-04-15T17:38:23;2.05;;;1.23;;
46365;SDS011;32073;49.166;8.076;2023-04-15T17:42:23;1.90;;;1.13;;
46365;SDS011;32073;49.166;8.076;2023-04-15T17:46:25;2.38;;;0.93;;
46365;SDS011;32073;49.166;8.076;2023-04-15T17:50:26;1.27;;;0.90;;
46365;SDS011;32073;49.166;8.076;2023-04-15T17:54:26;1.00;;;0.90;;
46365;SDS011;32073;49.166;8.076;2023-04-15T17:58:27;1.27;;;1.00;;
46365;SDS011;32073;49.166;8.076;2023-04-15T18:02:28;1.20;;;0.82;;
46365;SDS011;32073;49.166;8.076;2023-04-15T18:06:28;1.50;;;1.20;;
46365;SDS011;32073;49.166;8.076;2023-04-15T18:10:30;1.23;;;0.80;;
46365;SDS011;32073;49.166;8.076;2023-04-15T18:14:32;1.65;;;1.10;;
46365;SDS011;32073;49.166;8.076;2023-04-15T18:18:34;1.83;;;1.10;;
46365;SDS011;32073;49.166;8.076;2023-04-15T18:22:35;1.25;;;1.15;;
46365;SDS011;32073;49.166;8.076;2023-04-15T18:26:35;4.28;;;3.20;;
46365;SDS011;32073;49.166;8.076;2023-04-15T18:30:36;9.32;;;3.15;;
46365;SDS011;32073;49.166;8.076;2023-04-15T18:34:37;3.92;;;2.30;;
46365;SDS011;32073;49.166;8.076;2023-04-15T18:38:37;1.50;;;1.40;;
46365;SDS011;32073;49.166;8.076;2023-04-15T18:42:38;2.42;;;1.70;;
46365;SDS011;32073;49.166;8.076;2023-04-15T18:46:39;2.05;;;1.17;;
46365;SDS011;32073;49.166;8.076;2023-04-15T18:50:41;2.17;;;1.80;;
46365;SDS011;32073;49.166;8.076;2023-04-15T18:54:42;1.98;;;1.70;;
46365;SDS011;32073;49.166;8.076;2023-04-15T18:58:42;2.55;;;2.13;;
46365;SDS011;32073;49.166;8.076;2023-04-15T19:02:43;2.17;;;1.80;;
46365;SDS011;32073;49.166;8.076;2023-04-15T19:06:45;3.38;;;2.72;;
46365;SDS011;32073;49.166;8.076;2023-04-15T19:10:46;3.95;;;3.13;;
46365;SDS011;32073;49.166;8.076;2023-04-15T19:14:47;6.30;;;3.97;;
46365;SDS011;32073;49.166;8.076;2023-04-15T19:18:47;4.88;;;3.80;;
46365;SDS011;32073;49.166;8.076;2023-04-15T19:22:48;6.32;;;4.18;;
46365;SDS011;32073;49.166;8.076;2023-04-15T19:26:49;6.35;;;4.00;;
46365;SDS011;32073;49.166;8.076;2023-04-15T19:30:50;3.92;;;3.17;;
46365;SDS011;32073;49.166;8.076;2023-04-15T19:34:52;4.82;;;3.83;;
46365;SDS011;32073;49.166;8.076;2023-04-15T19:38:53;6.60;;;4.55;;
46365;SDS011;32073;49.166;8.076;2023-04-15T19:42:53;5.45;;;4.15;;
46365;SDS011;32073;49.166;8.076;2023-04-15T19:46:54;4.75;;;4.25;;
46365;SDS011;32073;49.166;8.076;2023-04-15T19:50:55;6.80;;;4.85;;
46365;SDS011;32073;49.166;8.076;2023-04-15T19:54:56;5.30;;;4.50;;
46365;SDS011;32073;49.166;8.076;2023-04-15T19:58:57;6.90;;;5.38;;
46365;SDS011;32073;49.166;8.076;2023-04-15T20:02:58;5.05;;;4.55;;
46365;SDS011;32073;49.166;8.076;2023-04-15T20:07:00;6.00;;;4.40;;
46365;SDS011;32073;49.166;8.076;2023-04-15T20:11:00;5.45;;;4.63;;
46365;SDS011;32073;49.166;8.076;2023-04-15T20:15:01;7.07;;;5.10;;
46365;SDS011;32073;49.166;8.076;2023-04-15T20:19:02;6.00;;;4.75;;
46365;SDS011;32073;49.166;8.076;2023-04-15T20:23:07;5.43;;;4.53;;
46365;SDS011;32073;49.166;8.076;2023-04-15T20:27:08;5.85;;;5.25;;
46365;SDS011;32073;49.166;8.076;2023-04-15T20:31:08;5.55;;;4.85;;
46365;SDS011;32073;49.166;8.076;2023-04-15T20:35:09;5.78;;;5.18;;
46365;SDS011;32073;49.166;8.076;2023-04-15T20:39:10;6.00;;;5.40;;
46365;SDS011;32073;49.166;8.076;2023-04-15T20:43:10;5.78;;;5.18;;
46365;SDS011;32073;49.166;8.076;2023-04-15T20:47:11;5.78;;;5.05;;
46365;SDS011;32073;49.166;8.076;2023-04-15T20:51:12;8.45;;;5.75;;
46365;SDS011;32073;49.166;8.076;2023-04-15T20:55:12;6.15;;;5.18;;
46365;SDS011;32073;49.166;8.076;2023-04-15T20:59:13;5.22;;;4.72;;
46365;SDS011;32073;49.166;8.076;2023-04-15T21:03:14;5.68;;;4.88;;
46365;SDS011;32073;49.166;8.076;2023-04-15T21:07:15;5.80;;;5.20;;
46365;SDS011;32073;49.166;8.076;2023-04-15T21:11:15;5.93;;;4.82;;
46365;SDS011;32073;49.166;8.076;2023-04-15T21:15:16;6.28;;;5.32;;
46365;SDS011;32073;49.166;8.076;2023-04-15T21:19:16;6.65;;;5.22;;
46365;SDS011;32073;49.166;8.076;2023-04-15T21:23:17;7.32;;;6.03;;
46365;SDS011;32073;49.166;8.076;2023-04-15T21:27:18;7.18;;;5.72;;
46365;SDS011;32073;49.166;8.076;2023-04-15T21:31:19;7.95;;;5.95;;
46365;SDS011;32073;49.166;8.076;2023-04-15T21:35:20;7.72;;;5.88;;
46365;SDS011;32073;49.166;8.076;2023-04-15T21:39:21;7.22;;;5.70;;
46365;SDS011;32073;49.166;8.076;2023-04-15T21:43:22;7.32;;;6.13;;
46365;SDS011;32073;49.166;8.076;2023-04-15T21:47:24;9.40;;;6.63;;
46365;SDS011;32073;49.166;8.076;2023-04-15T21:51:25;7.85;;;6.60;;
46365;SDS011;32073;49.166;8.076;2023-04-15T21:55:26;7.60;;;6.03;;
46365;SDS011;32073;49.166;8.076;2023-04-15T21:59:27;7.10;;;5.78;;
46365;SDS011;32073;49.166;8.076;2023-04-15T22:03:28;8.07;;;5.95;;
46365;SDS011;32073;49.166;8.076;2023-04-15T22:07:32;7.40;;;6.20;;
46365;SDS011;32073;49.166;8.076;2023-04-15T22:11:33;7.03;;;6.10;;
46365;SDS011;32073;49.166;8.076;2023-04-15T22:15:33;7.55;;;6.07;;
46365;SDS011;32073;49.166;8.076;2023-04-15T22:19:34;8.35;;;6.95;;
46365;SDS011;32073;49.166;8.076;2023-04-15T22:23:35;8.82;;;6.35;;
46365;SDS011;32073;49.166;8.076;2023-04-15T22:27:36;6.88;;;5.57;;
46365;SDS011;32073;49.166;8.076;2023-04-15T22:31:36;8.73;;;6.72;;
46365;SDS011;32073;49.166;8.076;2023-04-15T22:35:37;7.45;;;5.75;;
46365;SDS011;32073;49.166;8.076;2023-04-15T22:39:38;6.97;;;5.82;;
46365;SDS011;32073;49.166;8.076;2023-04-15T22:43:39;7.47;;;6.18;;
46365;SDS011;32073;49.166;8.076;2023-04-15T22:47:39;6.03;;;5.13;;
46365;SDS011;32073;49.166;8.076;2023-04-15T22:51:40;7.15;;;5.78;;
46365;SDS011;32073;49.166;8.076;2023-04-15T22:55:45;7.25;;;5.72;;
46365;SDS011;32073;49.166;8.076;2023-04-15T22:59:46;7.07;;;5.57;;
46365;SDS011;32073;49.166;8.076;2023-04-15T23:03:47;7.95;;;6.07;;
46365;SDS011;32073;49.166;8.076;2023-04-15T23:07:50;7.30;;;5.82;;
46365;SDS011;32073;49.166;8.076;2023-04-15T23:11:51;6.20;;;5.20;;
46365;SDS011;32073;49.166;8.076;2023-04-15T23:15:51;8.55;;;6.32;;
46365;SDS011;32073;49.166;8.076;2023-04-15T23:19:52;6.38;;;5.43;;
46365;SDS011;32073;49.166;8.076;2023-04-15T23:23:53;7.18;;;6.22;;
46365;SDS011;32073;49.166;8.076;2023-04-15T23:27:53;7.53;;;5.95;;
46365;SDS011;32073;49.166;8.076;2023-04-15T23:31:55;7.93;;;6.80;;
46365;SDS011;32073;49.166;8.076;2023-04-15T23:35:56;8.40;;;6.68;;
46365;SDS011;32073;49.166;8.076;2023-04-15T23:39:56;8.25;;;6.78;;
46365;SDS011;32073;49.166;8.076;2023-04-15T23:43:57;7.60;;;5.97;;
46365;SDS011;32073;49.166;8.076;2023-04-15T23:47:58;7.88;;;6.45;;
46365;SDS011;32073;49.166;8.076;2023-04-15T23:51:58;8.20;;;6.20;;
46365;SDS011;32073;49.166;8.076;2023-04-15T23:55:59;8.25;;;6.18;;
